Time;durP1;ratioP1;P1;durP2;ratioP2;P2;SDS_P1;SDS_P2;PMS_P1;PMS_P2;Temp;Humidity;BMP_temperature;BMP_pressure;BME280_temperature;BME280_humidity;BME280_pressure;Samples;Min_cycle;Max_cycle;Signal;HPM_P1;HPM_P2
2022/09/21 00:00:50;;;;;;;4.25;1.30;;;9.70;99.90;;;;;;5091901;28;20020;-69
2022/09/21 00:03:16;;;;;;;5.45;1.60;;;9.60;99.90;;;;;;5091424;28;20472;-69
2022/09/21 00:05:42;;;;;;;5.22;1.40;;;9.50;99.90;;;;;;5091824;28;20077;-70
2022/09/21 00:08:10;;;;;;;4.38;1.50;;;9.50;99.90;;;;;;5091482;28;20016;-69
2022/09/21 00:10:36;;;;;;;4.80;1.65;;;9.50;99.90;;;;;;5091620;28;20137;-69
2022/09/21 00:13:03;;;;;;;6.90;1.90;;;9.40;99.90;;;;;;5091522;28;20130;-69
2022/09/21 00:15:30;;;;;;;4.60;1.65;;;9.40;99.90;;;;;;5091422;28;20024;-69
2022/09/21 00:17:57;;;;;;;6.85;1.50;;;9.40;99.90;;;;;;5091139;28;20028;-69
2022/09/21 00:20:24;;;;;;;7.93;1.60;;;9.30;99.90;;;;;;5093447;28;20028;-69
2022/09/21 00:22:50;;;;;;;5.30;1.70;;;9.30;99.90;;;;;;5095118;28;20099;-69
2022/09/21 00:25:18;;;;;;;4.63;1.58;;;9.20;99.90;;;;;;5094939;28;20561;-69
2022/09/21 00:27:46;;;;;;;3.90;1.40;;;9.20;99.90;;;;;;5094994;28;20086;-68
2022/09/21 00:30:12;;;;;;;3.80;1.63;;;9.10;99.90;;;;;;5094484;28;20115;-69
2022/09/21 00:32:40;;;;;;;3.08;1.60;;;9.10;99.90;;;;;;5093637;28;20103;-68
2022/09/21 00:35:07;;;;;;;3.53;1.50;;;9.00;99.90;;;;;;5094689;28;20085;-68
2022/09/21 00:37:33;;;;;;;5.82;1.52;;;8.90;99.90;;;;;;5094641;28;20028;-69
2022/09/21 00:39:59;;;;;;;5.15;1.58;;;9.00;99.90;;;;;;5094628;28;20024;-68
2022/09/21 00:42:31;;;;;;;4.15;1.40;;;9.00;99.90;;;;;;5094761;28;20031;-68
2022/09/21 00:44:57;;;;;;;3.63;1.50;;;8.90;99.90;;;;;;5094094;28;20044;-68
2022/09/21 00:47:34;;;;;;;5.40;1.63;;;8.90;99.90;;;;;;5094616;28;20020;-68
2022/09/21 00:50:06;;;;;;;5.18;1.73;;;8.90;99.90;;;;;;5074482;28;20028;-68
2022/09/21 00:52:36;;;;;;;7.05;1.77;;;8.80;99.90;;;;;;5074088;28;20044;-68
2022/09/21 00:55:09;;;;;;;4.07;1.30;;;8.70;99.90;;;;;;5074289;28;20035;-68
2022/09/21 00:57:35;;;;;;;2.70;1.42;;;8.70;99.90;;;;;;5074205;28;20431;-68
2022/09/21 01:00:05;;;;;;;5.65;1.73;;;8.70;99.90;;;;;;5073739;28;20490;-68
2022/09/21 01:02:31;;;;;;;3.92;1.75;;;8.60;99.90;;;;;;5074514;28;20028;-68
2022/09/21 01:04:58;;;;;;;3.65;1.52;;;8.50;99.90;;;;;;5073857;28;20040;-68
2022/09/21 01:07:28;;;;;;;3.90;1.42;;;8.50;99.90;;;;;;5073884;28;20025;-68
2022/09/21 01:09:57;;;;;;;7.45;1.80;;;8.50;99.90;;;;;;5073865;28;20040;-68
2022/09/21 01:12:37;;;;;;;5.38;1.70;;;8.40;99.90;;;;;;5072469;28;20029;-68
2022/09/21 01:15:09;;;;;;;4.40;1.60;;;8.40;99.90;;;;;;5073961;28;20025;-67
2022/09/21 01:17:43;;;;;;;4.00;1.48;;;8.40;99.90;;;;;;5073730;28;20036;-67
2022/09/21 01:20:33;;;;;;;5.78;1.58;;;8.40;99.90;;;;;;5073688;28;20497;-67
2022/09/21 01:23:17;;;;;;;6.88;1.63;;;8.30;99.90;;;;;;5073775;28;20028;-68
2022/09/21 01:25:58;;;;;;;5.75;1.73;;;8.20;99.90;;;;;;5073550;28;20098;-67
2022/09/21 01:28:54;;;;;;;4.40;1.70;;;8.20;99.90;;;;;;5093737;28;20099;-68
2022/09/21 01:31:30;;;;;;;4.40;1.70;;;8.30;99.90;;;;;;5093268;28;20028;-68
2022/09/21 01:34:02;;;;;;;2.95;1.50;;;8.20;99.90;;;;;;5093683;28;20029;-67
2022/09/21 01:36:30;;;;;;;4.28;1.50;;;8.10;99.90;;;;;;5093633;28;20028;-67
2022/09/21 01:39:08;;;;;;;5.05;1.90;;;8.20;99.90;;;;;;5093529;28;20494;-67
2022/09/21 01:41:36;;;;;;;6.20;1.85;;;8.20;99.90;;;;;;5093375;28;20028;-67
2022/09/21 01:44:09;;;;;;;2.42;1.40;;;8.20;99.90;;;;;;5093029;28;20036;-67
2022/09/21 01:46:36;;;;;;;4.60;1.83;;;8.00;99.90;;;;;;5093949;28;20024;-67
2022/09/21 01:49:11;;;;;;;5.47;1.65;;;7.90;99.90;;;;;;5093179;28;20266;-68
2022/09/21 01:51:42;;;;;;;4.05;1.50;;;7.90;99.90;;;;;;5093628;28;20046;-67
2022/09/21 01:54:18;;;;;;;4.93;1.70;;;7.90;99.90;;;;;;5093100;28;20048;-67
2022/09/21 01:56:50;;;;;;;5.15;1.70;;;7.80;99.90;;;;;;5093188;28;20032;-67
2022/09/21 01:59:18;;;;;;;3.05;1.60;;;7.80;99.90;;;;;;5092878;28;20055;-67
2022/09/21 02:01:58;;;;;;;3.47;1.60;;;7.80;99.90;;;;;;5093118;28;20024;-67
2022/09/21 02:04:24;;;;;;;5.35;1.60;;;7.70;99.90;;;;;;5093086;28;20024;-68
2022/09/21 02:06:51;;;;;;;6.18;1.67;;;7.60;99.90;;;;;;5092969;28;20085;-68
2022/09/21 02:09:18;;;;;;;4.35;1.70;;;7.50;99.90;;;;;;5093019;28;20065;-68
2022/09/21 02:11:44;;;;;;;3.58;1.80;;;7.50;99.90;;;;;;5093345;28;20020;-67
2022/09/21 02:14:21;;;;;;;3.97;1.83;;;7.50;99.90;;;;;;5092660;28;20047;-67
2022/09/21 02:17:06;;;;;;;6.03;1.70;;;7.50;99.90;;;;;;5092865;28;20020;-68
2022/09/21 02:20:09;;;;;;;4.40;1.75;;;7.50;99.90;;;;;;5093301;28;20092;-67
2022/09/21 02:22:46;;;;;;;3.95;1.58;;;7.40;99.90;;;;;;5093140;28;20028;-67
2022/09/21 02:25:15;;;;;;;4.30;1.60;;;7.40;99.90;;;;;;5092688;28;20028;-67
2022/09/21 02:28:17;;;;;;;4.40;1.67;;;7.30;99.90;;;;;;5092125;28;20039;-67
2022/09/21 02:30:52;;;;;;;5.20;1.40;;;7.30;99.90;;;;;;5084171;28;20173;-67
2022/09/21 02:34:04;;;;;;;4.55;1.60;;;7.30;99.90;;;;;;5093250;28;20363;-67
2022/09/21 02:36:51;;;;;;;5.68;1.70;;;7.20;99.90;;;;;;5000073;28;20044;-67
2022/09/21 02:39:52;;;;;;;3.83;1.50;;;7.20;99.90;;;;;;5010280;28;20026;-67
2022/09/21 02:42:33;;;;;;;4.38;1.55;;;7.10;99.90;;;;;;4979979;28;20167;-68
2022/09/21 02:45:21;;;;;;;5.22;1.90;;;7.10;99.90;;;;;;5010294;28;20045;-67
2022/09/21 02:48:01;;;;;;;4.03;1.73;;;7.10;99.90;;;;;;5010151;28;20073;-68
2022/09/21 02:50:34;;;;;;;4.63;1.60;;;7.10;99.90;;;;;;5010524;28;20038;-68
2022/09/21 02:53:02;;;;;;;3.45;1.83;;;7.10;99.90;;;;;;5010067;28;20455;-68
2022/09/21 02:55:29;;;;;;;3.58;1.50;;;7.00;99.90;;;;;;5009773;28;20033;-67
2022/09/21 02:57:55;;;;;;;5.35;1.65;;;7.10;99.90;;;;;;5010320;28;20117;-68
2022/09/21 03:00:21;;;;;;;4.88;1.42;;;6.90;99.90;;;;;;5010159;28;20034;-68
2022/09/21 03:02:47;;;;;;;5.07;1.85;;;6.80;99.90;;;;;;5010127;28;20073;-68
2022/09/21 03:05:14;;;;;;;4.50;1.85;;;6.80;99.90;;;;;;5010571;28;20038;-68
2022/09/21 03:07:40;;;;;;;3.13;1.60;;;6.70;99.90;;;;;;5009973;28;20433;-69
2022/09/21 03:10:07;;;;;;;3.17;1.52;;;6.70;99.90;;;;;;5009791;28;20448;-70
2022/09/21 03:12:33;;;;;;;5.93;1.73;;;6.70;99.90;;;;;;5030267;28;20032;-69
2022/09/21 03:14:59;;;;;;;3.83;1.60;;;6.70;99.90;;;;;;5071919;28;20447;-71
2022/09/21 03:17:26;;;;;;;3.30;1.48;;;6.70;99.90;;;;;;5072063;28;20104;-68
2022/09/21 03:19:53;;;;;;;4.05;1.80;;;6.60;99.90;;;;;;5071880;28;20108;-69
2022/09/21 03:22:23;;;;;;;3.17;1.35;;;6.50;99.90;;;;;;5071754;28;20074;-69
2022/09/21 03:24:49;;;;;;;3.95;1.70;;;6.40;99.90;;;;;;5071348;28;20107;-69
2022/09/21 03:27:20;;;;;;;4.75;1.70;;;6.50;99.90;;;;;;5084913;28;20032;-69
2022/09/21 03:29:46;;;;;;;5.53;2.20;;;6.40;99.90;;;;;;5091524;28;20049;-69
2022/09/21 03:32:13;;;;;;;5.82;1.67;;;6.40;99.90;;;;;;5091214;28;20024;-69
2022/09/21 03:34:39;;;;;;;4.32;1.80;;;6.40;99.90;;;;;;5091159;28;20094;-69
2022/09/21 03:37:07;;;;;;;4.45;1.80;;;6.40;99.90;;;;;;5091210;28;20024;-70
2022/09/21 03:39:33;;;;;;;3.97;1.52;;;6.40;99.90;;;;;;5090567;28;20030;-69
2022/09/21 03:41:59;;;;;;;3.63;1.70;;;6.40;99.90;;;;;;5091557;28;20028;-69
2022/09/21 03:44:25;;;;;;;3.33;1.60;;;6.30;99.90;;;;;;5091754;28;20038;-69
2022/09/21 03:46:52;;;;;;;5.13;1.70;;;6.20;99.90;;;;;;5092159;28;20024;-70
2022/09/21 03:49:18;;;;;;;4.88;1.58;;;6.20;99.90;;;;;;5091656;28;20090;-69
2022/09/21 03:51:44;;;;;;;4.55;1.75;;;6.10;99.90;;;;;;5091631;28;20024;-70
2022/09/21 03:54:10;;;;;;;6.15;1.60;;;6.10;99.90;;;;;;5092572;28;20066;-70
2022/09/21 03:56:36;;;;;;;5.90;1.63;;;6.10;99.90;;;;;;5096046;28;20107;-69
2022/09/21 03:59:02;;;;;;;6.15;1.75;;;6.10;99.90;;;;;;5095590;28;20020;-69
2022/09/21 04:01:28;;;;;;;3.53;1.45;;;6.10;99.90;;;;;;5095611;28;20115;-70
2022/09/21 04:03:54;;;;;;;3.97;1.48;;;6.10;99.90;;;;;;5095883;28;20091;-69
2022/09/21 04:06:20;;;;;;;4.75;1.85;;;6.00;99.90;;;;;;5095332;28;20123;-69
2022/09/21 04:08:45;;;;;;;4.30;1.70;;;6.00;99.90;;;;;;5094925;28;20020;-69
2022/09/21 04:11:15;;;;;;;5.07;1.80;;;6.00;99.90;;;;;;5095816;28;20085;-69
2022/09/21 04:13:42;;;;;;;6.20;1.88;;;5.90;99.90;;;;;;5095343;28;20107;-69
2022/09/21 04:16:08;;;;;;;6.40;1.70;;;5.80;99.90;;;;;;5095139;28;20028;-69
2022/09/21 04:18:35;;;;;;;3.45;1.90;;;5.80;99.90;;;;;;5095266;28;20020;-69
2022/09/21 04:21:00;;;;;;;2.83;1.70;;;5.80;99.90;;;;;;5095111;28;20475;-69
2022/09/21 04:23:26;;;;;;;4.90;1.70;;;5.80;99.90;;;;;;5095164;28;20015;-69
2022/09/21 04:25:54;;;;;;;3.13;1.50;;;5.80;99.90;;;;;;5094871;28;20543;-69
2022/09/21 04:28:20;;;;;;;3.83;1.75;;;5.80;99.90;;;;;;5094864;28;20017;-69
2022/09/21 04:30:46;;;;;;;5.60;1.70;;;5.70;99.90;;;;;;5094936;28;20034;-70
2022/09/21 04:33:13;;;;;;;4.60;1.50;;;5.70;99.90;;;;;;5095242;28;20024;-70
2022/09/21 04:35:39;;;;;;;5.75;1.80;;;5.70;99.90;;;;;;5094712;28;20490;-70
2022/09/21 04:38:04;;;;;;;6.20;1.98;;;5.60;99.90;;;;;;5094475;28;20093;-70
2022/09/21 04:40:30;;;;;;;7.15;1.85;;;5.60;99.90;;;;;;5094756;28;20486;-69
2022/09/21 04:42:56;;;;;;;6.05;1.80;;;5.50;99.90;;;;;;5094691;28;20062;-69
2022/09/21 04:45:23;;;;;;;4.78;1.85;;;5.50;99.90;;;;;;5094598;28;20047;-70
2022/09/21 04:47:51;;;;;;;4.68;1.58;;;5.50;99.90;;;;;;5094815;28;20022;-70
2022/09/21 04:50:18;;;;;;;6.57;1.90;;;5.50;99.90;;;;;;5094438;28;20050;-70
2022/09/21 04:52:44;;;;;;;5.15;2.33;;;5.40;99.90;;;;;;5093903;28;20044;-70
2022/09/21 04:55:09;;;;;;;2.97;1.55;;;5.40;99.90;;;;;;5094919;28;20028;-69
2022/09/21 04:57:35;;;;;;;3.58;2.03;;;5.40;99.90;;;;;;5094427;28;20414;-70
2022/09/21 05:00:03;;;;;;;5.05;1.83;;;5.40;99.90;;;;;;5094241;28;20390;-69
2022/09/21 05:02:29;;;;;;;6.45;1.90;;;5.40;99.90;;;;;;5093075;28;20135;-70
2022/09/21 05:04:55;;;;;;;6.28;2.00;;;5.40;99.90;;;;;;5093804;28;20112;-70
2022/09/21 05:07:20;;;;;;;5.13;1.88;;;5.30;99.90;;;;;;5091900;28;20023;-69
2022/09/21 05:10:01;;;;;;;5.22;1.95;;;5.30;99.90;;;;;;5094586;28;20435;-70
2022/09/21 05:12:27;;;;;;;5.65;1.80;;;5.20;99.90;;;;;;5094263;28;20067;-69
2022/09/21 05:14:54;;;;;;;4.88;1.90;;;5.20;99.90;;;;;;5093973;28;20052;-69
2022/09/21 05:17:21;;;;;;;4.55;2.00;;;5.10;99.90;;;;;;5093956;28;20435;-69
2022/09/21 05:19:52;;;;;;;4.38;2.10;;;5.10;99.90;;;;;;5094008;28;20024;-69
2022/09/21 05:22:18;;;;;;;4.80;1.80;;;5.10;99.90;;;;;;5093595;28;20467;-68
2022/09/21 05:24:44;;;;;;;5.43;1.90;;;5.00;99.90;;;;;;5093682;28;20032;-69
2022/09/21 05:27:10;;;;;;;4.55;1.60;;;5.00;99.90;;;;;;5093659;28;20032;-69
2022/09/21 05:29:36;;;;;;;6.15;2.08;;;5.00;99.90;;;;;;5094132;28;20028;-69
2022/09/21 05:32:05;;;;;;;7.90;2.20;;;4.90;99.90;;;;;;5093835;28;20149;-69
2022/09/21 05:34:39;;;;;;;10.80;2.47;;;4.90;99.90;;;;;;5093544;28;20024;-69
2022/09/21 05:37:21;;;;;;;4.20;2.10;;;4.90;99.90;;;;;;5093257;28;20152;-69
2022/09/21 05:39:47;;;;;;;6.28;2.10;;;4.90;99.90;;;;;;5093623;28;20493;-69
2022/09/21 05:42:13;;;;;;;7.55;2.20;;;4.90;99.90;;;;;;5093432;28;20055;-69
2022/09/21 05:44:39;;;;;;;5.15;2.13;;;4.90;99.90;;;;;;5093392;28;20046;-69
2022/09/21 05:47:11;;;;;;;5.90;2.15;;;4.90;99.90;;;;;;5093420;28;20555;-71
2022/09/21 05:49:51;;;;;;;6.60;1.90;;;4.90;99.90;;;;;;5092910;28;20024;-69
2022/09/21 05:52:41;;;;;;;6.78;1.75;;;4.80;99.90;;;;;;5093494;28;20079;-64
2022/09/21 05:55:17;;;;;;;6.13;2.40;;;4.80;99.90;;;;;;5093741;28;20441;-68
2022/09/21 05:57:58;;;;;;;7.95;2.25;;;4.90;99.90;;;;;;5093170;28;20027;-68
2022/09/21 06:00:24;;;;;;;5.47;2.10;;;4.90;99.90;;;;;;5093304;28;20020;-68
2022/09/21 06:03:27;;;;;;;5.88;2.10;;;4.90;99.90;;;;;;5092845;28;20074;-68
2022/09/21 06:05:53;;;;;;;8.70;2.05;;;5.00;99.90;;;;;;5092660;28;20085;-68
2022/09/21 06:08:18;;;;;;;5.35;1.70;;;5.20;99.90;;;;;;5092799;28;20381;-67
2022/09/21 06:10:44;;;;;;;5.97;1.98;;;5.30;99.90;;;;;;5092800;28;20364;-67
2022/09/21 06:13:10;;;;;;;8.43;1.90;;;5.40;99.90;;;;;;5091839;28;20020;-67
2022/09/21 06:15:37;;;;;;;9.60;2.00;;;5.50;99.90;;;;;;5092818;28;20133;-67
2022/09/21 06:18:04;;;;;;;8.20;2.25;;;5.50;99.90;;;;;;5092390;28;20023;-68
2022/09/21 06:20:30;;;;;;;7.53;2.53;;;5.70;99.90;;;;;;5091295;28;20490;-66
2022/09/21 06:23:04;;;;;;;8.02;1.88;;;7.40;99.90;;;;;;5092538;28;20020;-66
2022/09/21 06:25:29;;;;;;;;;;;9.40;99.90;;;;;;5092902;28;20046;-67
2022/09/21 06:28:00;;;;;;;7.95;1.98;;;10.60;99.90;;;;;;5092589;28;20354;-68
2022/09/21 06:30:26;;;;;;;8.07;1.90;;;11.40;99.90;;;;;;5092581;28;20382;-67
2022/09/21 06:32:51;;;;;;;5.68;1.95;;;12.00;99.90;;;;;;5092536;28;20028;-67
2022/09/21 06:35:17;;;;;;;6.32;1.95;;;12.00;99.90;;;;;;5092318;28;20024;-68
2022/09/21 06:37:43;;;;;;;8.43;1.85;;;12.20;99.90;;;;;;5092417;28;20027;-66
2022/09/21 06:40:09;;;;;;;6.60;1.80;;;12.60;99.90;;;;;;5092151;28;20085;-67
2022/09/21 06:42:34;;;;;;;14.27;2.17;;;13.10;99.90;;;;;;5125879;27;20428;-67
2022/09/21 06:45:00;;;;;;;9.25;2.30;;;13.50;99.90;;;;;;5092342;28;20054;-69
2022/09/21 06:47:26;;;;;;;4.30;1.60;;;13.90;99.90;;;;;;5091438;28;20035;-70
2022/09/21 06:49:53;;;;;;;10.15;2.00;;;14.30;99.90;;;;;;5071515;28;20386;-70
2022/09/21 06:52:18;;;;;;;7.97;2.35;;;14.90;99.90;;;;;;5071735;28;20068;-70
2022/09/21 06:54:44;;;;;;;15.07;2.15;;;15.50;99.90;;;;;;5071891;28;20067;-70
2022/09/21 06:57:11;;;;;;;12.13;2.08;;;15.80;99.90;;;;;;5071751;28;20525;-69
2022/09/21 06:59:37;;;;;;;7.15;1.90;;;16.30;99.90;;;;;;5072068;28;20021;-70
2022/09/21 07:02:03;;;;;;;10.52;2.58;;;17.20;99.90;;;;;;5071350;28;20025;-70
2022/09/21 07:04:28;;;;;;;10.35;2.90;;;17.50;99.10;;;;;;5071634;28;20405;-70
2022/09/21 07:06:54;;;;;;;20.77;4.57;;;18.50;97.70;;;;;;5072162;28;20040;-69
2022/09/21 07:09:20;;;;;;;21.70;4.90;;;18.20;98.00;;;;;;5071774;28;20025;-69
2022/09/21 07:11:46;;;;;;;41.83;6.53;;;18.60;97.50;;;;;;5072047;28;20394;-69
2022/09/21 07:14:13;;;;;;;26.27;4.90;;;19.10;96.50;;;;;;5071791;28;20081;-69
2022/09/21 07:16:39;;;;;;;13.60;3.45;;;19.80;95.90;;;;;;5070585;28;20032;-69
2022/09/21 07:19:05;;;;;;;19.17;4.22;;;21.30;94.40;;;;;;5071195;28;20017;-69
2022/09/21 07:21:31;;;;;;;23.50;4.95;;;21.40;93.30;;;;;;5071604;28;20029;-69
2022/09/21 07:24:00;;;;;;;9.00;2.50;;;21.50;92.70;;;;;;5071672;28;20021;-69
2022/09/21 07:26:26;;;;;;;9.10;2.92;;;22.20;92.50;;;;;;5077412;28;20530;-69
2022/09/21 07:28:52;;;;;;;10.27;2.75;;;23.00;91.50;;;;;;5092384;28;20066;-69
2022/09/21 07:31:17;;;;;;;5.00;2.33;;;23.40;90.20;;;;;;5095779;28;20055;-69
2022/09/21 07:33:47;;;;;;;7.13;2.60;;;24.00;89.80;;;;;;5096502;28;20153;-69
2022/09/21 07:36:13;;;;;;;6.35;2.30;;;24.50;87.70;;;;;;5095818;28;20090;-69
2022/09/21 07:38:40;;;;;;;4.50;2.42;;;24.20;87.20;;;;;;5095806;28;20387;-68
2022/09/21 07:41:08;;;;;;;8.13;2.40;;;24.50;86.50;;;;;;5096098;28;20166;-68
2022/09/21 07:43:33;;;;;;;7.65;2.10;;;24.70;86.70;;;;;;5095491;28;20017;-67
2022/09/21 07:46:00;;;;;;;4.22;2.10;;;24.00;86.90;;;;;;5095363;28;20047;-68
2022/09/21 07:48:27;;;;;;;7.30;2.20;;;23.90;87.50;;;;;;5095531;28;20174;-68
2022/09/21 07:50:56;;;;;;;5.75;2.13;;;23.90;87.40;;;;;;5095245;28;20470;-67
2022/09/21 07:53:22;;;;;;;4.95;1.80;;;23.90;86.70;;;;;;5093867;28;20055;-68
2022/09/21 07:55:47;;;;;;;3.72;2.10;;;25.20;84.80;;;;;;5095581;28;20036;-70
2022/09/21 08:00:59;;;;;;;5.50;1.88;;;25.80;82.40;;;;;;5095191;28;20027;-68
2022/09/21 08:03:25;;;;;;;9.52;2.30;;;26.40;81.20;;;;;;5095163;28;20497;-59
2022/09/21 08:05:51;;;;;;;5.80;2.10;;;24.70;83.60;;;;;;5095253;28;20031;-58
2022/09/21 08:08:16;;;;;;;3.78;2.03;;;23.90;84.60;;;;;;5095502;28;20035;-58
2022/09/21 08:10:42;;;;;;;8.30;2.08;;;23.60;85.10;;;;;;5095056;28;20024;-58
2022/09/21 08:13:08;;;;;;;8.40;2.70;;;23.30;86.40;;;;;;5095548;28;20024;-58
2022/09/21 08:15:33;;;;;;;8.15;2.50;;;24.30;84.10;;;;;;5094476;28;20397;-58
2022/09/21 08:18:00;;;;;;;4.72;2.10;;;24.70;82.30;;;;;;5095169;28;20085;-58
2022/09/21 08:20:25;;;;;;;7.30;2.05;;;24.80;82.50;;;;;;5095617;28;20021;-58
2022/09/21 08:22:54;;;;;;;4.90;1.80;;;24.70;81.80;;;;;;5094981;28;20070;-58
2022/09/21 08:25:19;;;;;;;6.05;1.90;;;24.50;82.40;;;;;;5095005;28;20039;-58
2022/09/21 08:27:46;;;;;;;7.30;2.30;;;24.50;82.60;;;;;;5094735;28;20012;-58
2022/09/21 08:30:12;;;;;;;6.30;1.90;;;25.20;80.70;;;;;;5094639;28;20055;-58
2022/09/21 08:32:39;;;;;;;5.20;2.10;;;24.60;82.10;;;;;;5095161;28;20099;-58
2022/09/21 08:35:06;;;;;;;8.90;1.95;;;24.80;82.40;;;;;;5095388;28;20429;-58
2022/09/21 08:37:34;;;;;;;6.15;1.98;;;24.60;81.80;;;;;;5094708;28;20095;-58
2022/09/21 08:40:01;;;;;;;4.05;1.83;;;24.80;81.70;;;;;;5093867;28;20409;-58
2022/09/21 08:42:48;;;;;;;6.38;1.85;;;23.80;81.70;;;;;;5094308;28;20368;-58
2022/09/21 08:45:17;;;;;;;5.35;1.65;;;25.00;80.40;;;;;;5094082;28;20028;-57
2022/09/21 08:47:51;;;;;;;6.03;1.83;;;25.40;79.20;;;;;;5094602;28;20020;-58
2022/09/21 08:50:29;;;;;;;10.45;2.50;;;25.20;80.10;;;;;;5094710;28;20028;-58
2022/09/21 08:53:21;;;;;;;6.50;1.90;;;25.90;78.90;;;;;;5094742;28;20051;-56
2022/09/21 08:55:46;;;;;;;7.20;1.77;;;26.20;79.00;;;;;;5088762;28;20173;-59
2022/09/21 08:58:24;;;;;;;5.32;1.88;;;25.40;79.50;;;;;;5094217;28;20066;-58
2022/09/21 09:01:22;;;;;;;4.97;1.60;;;25.80;77.30;;;;;;5094469;28;20051;-58
2022/09/21 09:04:15;;;;;;;4.70;1.80;;;25.60;79.20;;;;;;5093636;28;20031;-58
2022/09/21 09:07:06;;;;;;;3.63;1.77;;;26.40;77.50;;;;;;5094191;28;20068;-58
2022/09/21 09:09:37;;;;;;;5.47;1.77;;;26.20;78.00;;;;;;5094083;28;20073;-58
2022/09/21 09:12:27;;;;;;;5.60;1.73;;;26.70;75.80;;;;;;5093989;28;20510;-58
2022/09/21 09:14:59;;;;;;;3.88;1.50;;;27.00;75.20;;;;;;5094158;28;20429;-58
2022/09/21 09:17:43;;;;;;;4.10;1.60;;;26.70;76.70;;;;;;5092698;28;20368;-58
2022/09/21 09:20:19;;;;;;;9.68;2.22;;;29.00;74.00;;;;;;5094029;28;20107;-59
2022/09/21 09:23:26;;;;;;;6.78;1.92;;;28.60;73.00;;;;;;5094275;28;20032;-58
2022/09/21 09:26:11;;;;;;;3.75;1.42;;;28.50;72.90;;;;;;5083122;28;20088;-59
2022/09/21 09:29:05;;;;;;;3.63;1.73;;;28.50;72.80;;;;;;5093457;28;20036;-58
2022/09/21 09:31:32;;;;;;;;;;;28.00;74.20;;;;;;5092911;28;20032;-58
2022/09/21 09:34:19;;;;;;;3.60;1.50;;;29.50;72.50;;;;;;5093722;28;19904;-58
2022/09/21 09:36:58;;;;;;;5.78;1.60;;;28.60;72.10;;;;;;5093672;28;20057;-58
2022/09/21 09:39:27;;;;;;;4.10;1.35;;;27.50;73.80;;;;;;5093559;28;20043;-58
2022/09/21 09:42:21;;;;;;;5.40;1.60;;;28.00;72.50;;;;;;5093455;28;20059;-58
2022/09/21 09:45:20;;;;;;;3.70;1.65;;;27.30;73.90;;;;;;5011193;28;20101;-58
2022/09/21 09:48:13;;;;;;;2.67;1.40;;;29.10;71.80;;;;;;5011343;28;20034;-59
2022/09/21 09:50:40;;;;;;;5.25;1.65;;;28.60;71.60;;;;;;5011386;28;20628;-58
2022/09/21 09:53:10;;;;;;;3.70;1.52;;;29.40;70.40;;;;;;5010694;28;20057;-58
2022/09/21 09:55:39;;;;;;;5.30;1.60;;;28.40;71.10;;;;;;5011228;28;20052;-58
2022/09/21 09:58:17;;;;;;;8.13;1.80;;;28.90;70.80;;;;;;5010836;28;20034;-58
2022/09/21 10:00:44;;;;;;;3.47;1.55;;;27.90;72.50;;;;;;5011498;28;20018;-59
2022/09/21 10:03:25;;;;;;;3.30;1.73;;;27.90;72.30;;;;;;5011083;28;20528;-58
2022/09/21 10:05:52;;;;;;;3.58;1.77;;;26.80;74.50;;;;;;5011018;28;20034;-58
2022/09/21 10:08:28;;;;;;;5.45;1.80;;;28.50;71.30;;;;;;5010981;28;20033;-60
2022/09/21 10:10:54;;;;;;;3.08;1.55;;;28.70;71.90;;;;;;5010669;28;20113;-59
2022/09/21 10:13:32;;;;;;;3.97;1.65;;;29.00;71.10;;;;;;5011042;28;20034;-58
2022/09/21 10:16:01;;;;;;;6.03;1.67;;;30.60;69.30;;;;;;5010844;28;20044;-58
2022/09/21 10:18:39;;;;;;;5.90;1.75;;;30.90;68.70;;;;;;5011228;28;20018;-59
2022/09/21 10:21:26;;;;;;;4.32;1.50;;;30.80;68.50;;;;;;5026661;28;20048;-58
2022/09/21 10:24:05;;;;;;;4.70;1.70;;;30.30;68.40;;;;;;5072549;28;20032;-59
2022/09/21 10:26:40;;;;;;;4.65;1.52;;;29.10;70.00;;;;;;5078880;28;20111;-59
2022/09/21 10:29:21;;;;;;;4.85;1.52;;;29.20;70.40;;;;;;5093110;28;20077;-59
2022/09/21 10:32:03;;;;;;;7.75;1.95;;;27.90;72.10;;;;;;5092757;28;20476;-58
2022/09/21 10:34:31;;;;;;;6.00;1.77;;;27.60;73.50;;;;;;5092745;28;20031;-59
2022/09/21 10:36:59;;;;;;;4.68;1.60;;;30.30;69.60;;;;;;5092573;28;20039;-59
2022/09/21 10:39:30;;;;;;;3.70;1.50;;;29.00;68.70;;;;;;5092269;28;20099;-59
2022/09/21 10:42:05;;;;;;;5.03;1.90;;;29.80;69.10;;;;;;5092543;28;20547;-59
2022/09/21 10:44:38;;;;;;;2.70;1.50;;;29.10;69.60;;;;;;5092879;28;20031;-59
2022/09/21 10:47:21;;;;;;;6.13;1.35;;;30.50;68.20;;;;;;5092678;28;20028;-59
2022/09/21 10:49:50;;;;;;;6.32;1.65;;;31.10;67.10;;;;;;5092423;28;20081;-58
2022/09/21 10:52:19;;;;;;;6.10;2.22;;;30.70;68.20;;;;;;5092016;28;20028;-59
2022/09/21 10:54:50;;;;;;;4.30;1.65;;;29.90;69.40;;;;;;5092029;28;20039;-59
2022/09/21 10:57:19;;;;;;;4.15;1.65;;;29.40;69.40;;;;;;5092654;28;20498;-59
2022/09/21 10:59:45;;;;;;;3.88;1.52;;;28.70;69.40;;;;;;5092350;28;20028;-59
2022/09/21 11:02:31;;;;;;;2.67;1.30;;;26.20;71.30;;;;;;5092200;28;20030;-58
2022/09/21 11:05:20;;;;;;;4.85;1.70;;;24.00;75.00;;;;;;5091628;28;20062;-59
2022/09/21 11:07:49;;;;;;;5.40;1.23;;;24.20;75.20;;;;;;5090761;28;20039;-59
2022/09/21 11:10:29;;;;;;;6.07;1.60;;;23.60;77.00;;;;;;5091856;28;20034;-58
2022/09/21 11:13:16;;;;;;;3.83;1.65;;;25.10;74.30;;;;;;5092178;28;20051;-59
2022/09/21 11:16:10;;;;;;;5.43;1.13;;;24.90;74.50;;;;;;5092208;28;20035;-58
2022/09/21 11:18:58;;;;;;;9.07;1.77;;;24.10;76.40;;;;;;5092213;28;20035;-58
2022/09/21 11:22:01;;;;;;;5.78;1.60;;;23.50;75.70;;;;;;5092007;28;20111;-59
2022/09/21 11:24:43;;;;;;;4.72;1.40;;;23.60;75.50;;;;;;5029415;28;20037;-59
2022/09/21 11:27:23;;;;;;;5.47;1.40;;;24.30;74.70;;;;;;5029579;28;20046;-59
2022/09/21 11:30:11;;;;;;;3.67;1.58;;;22.70;78.50;;;;;;5029506;28;20102;-59
2022/09/21 11:32:48;;;;;;;6.47;1.60;;;23.40;75.30;;;;;;5030052;28;20053;-59
2022/09/21 11:35:46;;;;;;;3.70;1.50;;;24.80;73.10;;;;;;5029586;28;20056;-59
2022/09/21 11:38:48;;;;;;;4.40;1.40;;;24.60;73.00;;;;;;5029333;28;20038;-58
2022/09/21 11:41:28;;;;;;;7.38;1.48;;;23.50;75.00;;;;;;5029846;28;20048;-58
2022/09/21 11:44:00;;;;;;;4.05;1.50;;;23.30;74.80;;;;;;5029734;28;20030;-59
2022/09/21 11:46:49;;;;;;;6.68;1.90;;;23.30;78.00;;;;;;5029430;28;20081;-59
2022/09/21 11:49:33;;;;;;;4.57;1.50;;;24.60;74.00;;;;;;5028870;28;20079;-59
2022/09/21 11:52:01;;;;;;;3.22;1.40;;;24.20;74.60;;;;;;5029072;28;20044;-58
2022/09/21 11:54:50;;;;;;;5.18;1.40;;;23.50;73.50;;;;;;5029271;28;20049;-59
2022/09/21 11:57:29;;;;;;;3.97;1.30;;;23.70;74.20;;;;;;5030266;28;20067;-58
2022/09/21 12:00:14;;;;;;;7.50;1.50;;;22.70;78.00;;;;;;5071660;28;20028;-58
2022/09/21 12:03:17;;;;;;;5.53;1.27;;;23.80;74.30;;;;;;5071575;28;20028;-58
2022/09/21 12:06:19;;;;;;;5.30;1.40;;;24.50;73.60;;;;;;5071142;28;20040;-59
2022/09/21 12:08:48;;;;;;;6.03;1.60;;;23.50;74.30;;;;;;5070988;28;20133;-58
2022/09/21 12:11:36;;;;;;;2.80;1.48;;;22.90;75.30;;;;;;5071418;28;20035;-58
2022/09/21 12:14:33;;;;;;;3.05;1.17;;;23.60;73.50;;;;;;5071354;28;20106;-59
2022/09/21 12:17:22;;;;;;;7.50;1.65;;;23.50;76.70;;;;;;5074851;28;20494;-58
2022/09/21 12:20:02;;;;;;;4.13;1.55;;;23.20;76.80;;;;;;5075185;28;20032;-59
2022/09/21 12:22:32;;;;;;;4.95;1.60;;;23.40;73.00;;;;;;5074937;28;20036;-58
2022/09/21 12:25:09;;;;;;;6.75;1.30;;;22.80;77.60;;;;;;5074752;28;20120;-59
2022/09/21 12:27:46;;;;;;;2.58;1.27;;;23.30;76.20;;;;;;5090359;28;20032;-59
2022/09/21 12:30:16;;;;;;;4.75;1.50;;;23.50;73.30;;;;;;5095019;28;20081;-59
2022/09/21 12:32:52;;;;;;;4.75;1.38;;;23.10;76.60;;;;;;5095612;28;20028;-58
2022/09/21 12:35:43;;;;;;;2.17;1.20;;;22.30;78.80;;;;;;5095175;28;20039;-59
2022/09/21 12:38:22;;;;;;;4.07;1.60;;;22.20;78.90;;;;;;5095355;28;20483;-58
2022/09/21 12:40:54;;;;;;;4.40;1.33;;;23.30;75.20;;;;;;5094828;28;20103;-59
2022/09/21 12:43:57;;;;;;;5.13;1.38;;;23.20;74.40;;;;;;5094771;28;20517;-59
2022/09/21 12:46:27;;;;;;;6.65;1.75;;;22.30;78.80;;;;;;5094304;28;20032;-59
2022/09/21 12:48:53;;;;;;;5.28;1.40;;;22.80;76.70;;;;;;5094807;28;20024;-59
2022/09/21 12:51:25;;;;;;;5.32;1.50;;;23.60;73.70;;;;;;5094712;28;20024;-59
2022/09/21 12:53:57;;;;;;;7.28;1.45;;;23.10;74.20;;;;;;5094454;28;20062;-59
2022/09/21 12:56:32;;;;;;;5.72;1.45;;;23.20;74.80;;;;;;5094597;28;20028;-58
2022/09/21 12:59:05;;;;;;;4.68;1.40;;;22.60;77.70;;;;;;5094520;28;20053;-59
2022/09/21 13:01:31;;;;;;;4.32;1.20;;;23.10;74.90;;;;;;5094791;28;20027;-59
2022/09/21 13:04:03;;;;;;;6.15;1.40;;;23.20;73.70;;;;;;5094026;28;20428;-59
2022/09/21 13:06:50;;;;;;;6.10;1.55;;;23.50;74.00;;;;;;5093842;28;20035;-59
2022/09/21 13:09:19;;;;;;;7.40;1.20;;;23.40;74.00;;;;;;5094456;28;20024;-58
2022/09/21 13:11:58;;;;;;;3.85;1.50;;;23.70;71.80;;;;;;5094189;28;20051;-59
2022/09/21 13:14:28;;;;;;;2.78;1.33;;;22.70;76.80;;;;;;5094240;28;20022;-59
2022/09/21 13:17:01;;;;;;;2.38;1.38;;;21.90;78.80;;;;;;5094364;28;20034;-58
2022/09/21 13:19:30;;;;;;;4.00;1.73;;;22.20;74.70;;;;;;5093787;28;20026;-59
2022/09/21 13:22:23;;;;;;;3.05;1.38;;;22.10;77.60;;;;;;5094153;28;20342;-59
2022/09/21 13:25:28;;;;;;;4.43;1.30;;;21.70;80.10;;;;;;5087522;28;20199;-58